• Join FlightAware (Why Join?)
  • Login
  • US Flag 
10:58PM EDT


 

Airport Tracker/Info


-or-


 

Live Flight TrackerFlight Track Log ✈ UAL1717 ✈ 06-Nov-2013 ✈ KMCO - KDEN

Flight Track Log - Related Links

Times and Time Zones

All times are in EST time to prevent confusion due to time zone crossing. See the UAL1717 flight status page for this flight to view local times or setup timezone preferences in your user account.

Time Position Orientation Groundspeed Altitude Reporting Facility
EST Latitude Longitude Course Direction KTS MPH feet Rate Location/Type
04:47PM 28.4500 -81.3167 270° West 168 193 1,000  Level Orlando TRACON
04:48PM 28.5000 -81.3167 360° North 206 237 2,900 1,980 Climbing Orlando TRACON
04:49PM 28.5833 -81.3333 350° North 289 333 5,100 1,620 Climbing Orlando TRACON
04:51PM 28.6907 -81.7073 270° West  Level Estimated
04:52PM 28.7558 -81.8071 270° West  Level Estimated
04:52PM 28.5642 -81.5239 264° West 292 336 8,700  Level Jacksonville Center
04:53PM 28.5422 -81.6142 255° West 298 343 11,700 1,980 Climbing Jacksonville Center
04:54PM 28.5203 -81.7136 256° West 310 357 12,700 1,080 Climbing Jacksonville Center
04:55PM 28.4961 -81.8272 256° West 343 395 13,900 1,380 Climbing Jacksonville Center
04:56PM 28.4678 -81.9550 256° West 387 445 15,500 1,800 Climbing Jacksonville Center
04:57PM 28.4397 -82.0994 258° West 407 468 17,500 1,740 Climbing Jacksonville Center
04:58PM 28.4467 -82.2386 273° West 436 502 19,000 1,380 Climbing Jacksonville Center
04:59PM 28.4578 -82.3778 275° West 441 507 20,300 1,320 Climbing Jacksonville Center
05:00PM 28.5353 -82.5003 306° West 440 506 21,700 1,200 Climbing Jacksonville Center
05:01PM 28.6461 -82.5944 323° Northwest 462 532 22,800 1,140 Climbing Jacksonville Center
05:02PM 28.7550 -82.6936 321° Northwest 477 549 24,000 1,200 Climbing Jacksonville Center
05:03PM 28.8678 -82.7953 322° Northwest 498 573 25,300 1,500 Climbing Jacksonville Center
05:04PM 28.9783 -82.8972 321° Northwest 513 590 27,100 1,560 Climbing Jacksonville Center
05:05PM 29.0850 -82.9947 321° Northwest 513 590 28,500 1,260 Climbing Jacksonville Center
05:06PM 29.1933 -83.0947 321° Northwest 503 579 29,700 1,380 Climbing Jacksonville Center
05:07PM 29.3017 -83.1950 321° Northwest 503 579 31,300 1,500 Climbing Jacksonville Center
05:08PM 29.4036 -83.2931 320° Northwest 498 573 32,800 1,620 Climbing Jacksonville Center
05:09PM 29.4994 -83.3936 318° Northwest 480 552 34,600 1,020 Climbing Jacksonville Center
05:11PM 29.6403 -83.6239 305° West 448 516 35,900 420 Climbing Jacksonville Center
05:12PM 29.7106 -83.7414 305° West 443 510 36,000  Climbing Jacksonville Center
05:13PM 29.7786 -83.8522 305° West 448 516 36,000  Level Jacksonville Center
05:14PM 29.8506 -83.9678 306° West 448 516 36,000  Level Jacksonville Center
05:15PM 29.9186 -84.0858 304° West 448 516 36,000  Level Jacksonville Center
05:16PM 29.9803 -84.1897 304° West 443 510 36,000  Level Jacksonville Center
05:17PM 30.0519 -84.3061 305° West 443 510 36,000  Level Jacksonville Center
05:18PM 30.1217 -84.4247 304° West 443 510 36,000  Level Jacksonville Center
05:19PM 30.1911 -84.5411 305° West 443 510 36,000  Level Jacksonville Center
05:20PM 30.2625 -84.6603 305° West 449 517 36,000 -60 Level Jacksonville Center
05:21PM 30.3319 -84.7842 303° West 449 517 35,900 -60 Descending Jacksonville Center
05:22PM 30.4053 -84.9036 305° West 454 522 35,900  Level Jacksonville Center
05:23PM 30.4742 -85.0256 303° West 454 522 36,000  Climbing Jacksonville Center
05:24PM 30.5472 -85.1503 304° West 460 529 36,000  Level Jacksonville Center
05:25PM 30.6181 -85.2703 304° West 460 529 36,000  Level Jacksonville Center
05:26PM 30.6889 -85.3928 304° West 460 529 36,000  Level Jacksonville Center
05:27PM 30.7594 -85.5156 304° West 460 529 36,000  Level Jacksonville Center
05:28PM 30.8278 -85.6358 304° West 460 529 36,000  Level Jacksonville Center
05:29PM 30.8981 -85.7589 304° West 460 529 36,000  Level Jacksonville Center
05:30PM 30.9683 -85.8797 304° West 460 529 36,000  Level Jacksonville Center
05:31PM 31.0386 -86.0056 303° West 460 529 36,000  Level Jacksonville Center
05:32PM 31.1125 -86.1417 302° West 460 529 36,000  Level Jacksonville Center
05:33PM 31.1761 -86.2556 303° West 460 529 36,000  Level Jacksonville Center
05:34PM 31.2481 -86.3794 304° West 460 529 36,000  Level Jacksonville Center
05:35PM 31.3217 -86.5111 303° West 466 536 36,000  Level Jacksonville Center
05:36PM 31.4178 -86.6814 304° West 480 552 36,000  Level Atlanta Center
05:37PM 31.4881 -86.8053 304° West 480 552 36,000  Level Atlanta Center
05:38PM 31.5583 -86.9342 303° West 474 545 36,000  Level Atlanta Center
05:39PM 31.6286 -87.0483 306° West 474 545 36,000  Level Atlanta Center
05:40PM 31.7003 -87.1875 301° West 466 536 36,000  Level Atlanta Center
05:41PM 31.7700 -87.3144 303° West 461 531 36,000  Level Atlanta Center
05:42PM 31.8378 -87.4269 305° West 467 537 36,000  Level Atlanta Center
05:43PM 31.9072 -87.5569 302° West 474 545 36,000  Level Atlanta Center
05:45PM 32.0186 -87.7628 303° West 457 526 36,000  Level Memphis Center
05:46PM 32.0881 -87.8908 303° West 452 520 36,000 240 Level Memphis Center
05:47PM 32.1531 -88.0164 301° West 452 520 36,500 600 Climbing Memphis Center
05:48PM 32.2219 -88.1400 303° West 452 520 37,300 660 Climbing Memphis Center
05:49PM 32.2956 -88.2806 302° West 458 527 37,900 300 Climbing Memphis Center
05:50PM 32.3622 -88.4069 302° West 458 527 38,000  Climbing Memphis Center
05:51PM 32.4289 -88.5336 302° West 458 527 38,000  Level Memphis Center
05:52PM 32.4889 -88.6383 304° West 451 519 38,000  Level Memphis Center
05:53PM 32.5531 -88.7628 301° West 451 519 38,000  Level Memphis Center
05:54PM 32.6194 -88.8872 302° West 451 519 38,000  Level Memphis Center
05:55PM 32.6833 -89.0072 302° West 446 513 38,000  Level Memphis Center
05:56PM 32.7472 -89.1322 301° West 440 506 38,000  Level Memphis Center
05:57PM 32.8111 -89.2525 302° West 440 506 38,000  Level Memphis Center
05:58PM 32.8831 -89.3875 302° West 440 506 38,000  Level Memphis Center
05:59PM 32.9444 -89.5081 301° West 440 506 38,000  Level Memphis Center
06:00PM 33.0100 -89.6264 303° West 440 506 38,000  Level Memphis Center
06:01PM 33.0775 -89.7497 303° West 440 506 38,000  Level Memphis Center
06:02PM 33.1386 -89.8758 300° West 440 506 38,000  Level Memphis Center
06:03PM 33.1933 -89.9897 300° West 440 506 38,000  Level Memphis Center
06:04PM 33.2542 -90.1114 301° West 440 506 38,000  Level Memphis Center
06:05PM 33.3169 -90.2331 302° West 440 506 38,000  Level Memphis Center
06:06PM 33.3775 -90.3547 301° West 440 506 38,000  Level Memphis Center
06:07PM 33.4400 -90.4767 302° West 435 501 38,000  Level Memphis Center
06:08PM 33.5006 -90.5989 301° West 435 501 38,000  Level Memphis Center
06:09PM 33.5628 -90.7211 301° West 435 501 38,000  Level Memphis Center
06:10PM 33.6250 -90.8436 301° West 429 494 38,000  Level Memphis Center
06:11PM 33.6828 -90.9639 300° West 424 488 38,000  Level Memphis Center
06:12PM 33.7450 -91.0842 302° West 424 488 38,000  Level Memphis Center
06:13PM 33.8047 -91.2072 300° West 424 488 38,000  Level Memphis Center
06:14PM 33.8622 -91.3253 300° West 424 488 38,000  Level Memphis Center
06:15PM 33.9197 -91.4436 300° West 419 482 38,000  Level Memphis Center
06:16PM 33.9811 -91.5647 301° West 419 482 38,000  Level Memphis Center
06:17PM 34.0383 -91.6808 301° West 412 474 38,000  Level Memphis Center
06:18PM 34.0978 -91.7944 302° West 412 474 38,000  Level Memphis Center
06:19PM 34.1547 -91.9183 299° West 412 474 38,000  Level Memphis Center
06:20PM 34.2117 -92.0375 300° West 412 474 38,000  Level Memphis Center
06:21PM 34.2706 -92.1567 301° West 412 474 38,000  Level Memphis Center
06:22PM 34.3269 -92.2761 300° West 412 474 38,000  Level Memphis Center
06:23PM 34.3836 -92.3956 300° West 412 474 38,000  Level Memphis Center
06:24PM 34.4422 -92.5153 301° West 412 474 38,000  Level Memphis Center
06:25PM 34.4983 -92.6378 299° West 412 474 38,000  Level Memphis Center
06:26PM 34.5586 -92.7606 301° West 412 474 38,000  Level Memphis Center
06:27PM 34.6167 -92.8833 300° West 418 481 38,000  Level Memphis Center
06:28PM 34.6728 -92.9986 301° West 418 481 38,000  Level Memphis Center
06:29PM 34.7325 -93.1292 299° West 418 481 38,000  Level Memphis Center
06:30PM 34.7861 -93.2472 299° West 413 475 38,000  Level Memphis Center
06:31PM 34.8417 -93.3681 299° West 408 470 38,000  Level Memphis Center
06:32PM 34.8953 -93.4839 299° West 403 464 38,000  Level Memphis Center
06:33PM 34.9506 -93.6025 300° West 403 464 38,000  Level Memphis Center
06:34PM 35.0019 -93.7136 299° West 394 453 38,000  Level Memphis Center
06:35PM 35.0611 -93.8350 301° West 394 453 38,000  Level Memphis Center
06:36PM 35.1061 -93.9461 296° West 388 447 38,000  Level Memphis Center
06:37PM 35.1631 -94.0653 300° West 388 447 38,000  Level Memphis Center
06:38PM 35.2178 -94.1847 299° West 395 455 38,000  Level Memphis Center
06:39PM 35.2725 -94.3017 300° West 395 455 38,000  Level Memphis Center
06:40PM 35.3250 -94.4211 298° West 400 460 38,000  Level Memphis Center
06:41PM 35.3714 -94.5303 298° West 400 460 38,000  Level Memphis Center
06:42PM 35.4597 -94.7186 300° West 398 458 38,000  Level Kansas City Center
06:43PM 35.5122 -94.8369 299° West 395 455 38,000  Level Kansas City Center
06:44PM 35.5642 -94.9547 298° West 391 450 38,000  Level Kansas City Center
06:45PM 35.6172 -95.0728 299° West 392 451 38,000  Level Kansas City Center
06:46PM 35.6706 -95.1875 300° West 387 445 38,000  Level Kansas City Center
06:47PM 35.7211 -95.3056 298° West 387 445 38,000  Level Kansas City Center
06:48PM 35.7736 -95.4222 299° West 387 445 38,000  Level Kansas City Center
06:49PM 35.8342 -95.5619 298° West 384 442 38,000  Level Kansas City Center
06:50PM 35.8844 -95.6792 298° West 384 442 38,000  Level Kansas City Center
06:51PM 35.9361 -95.7969 298° West 386 444 38,000  Level Kansas City Center
06:53PM 35.9883 -95.9161 298° West 390 449 38,000  Level Kansas City Center
06:54PM 36.0397 -96.0375 298° West 394 453 38,000  Level Kansas City Center
06:55PM 36.0939 -96.1606 299° West 401 461 38,000  Level Kansas City Center
06:56PM 36.1469 -96.2833 298° West 403 464 38,000  Level Kansas City Center
06:57PM 36.1986 -96.4058 298° West 402 463 38,000  Level Kansas City Center
06:58PM 36.2514 -96.5292 298° West 402 463 38,000  Level Kansas City Center
06:59PM 36.3150 -96.6767 298° West 403 464 38,000  Level Kansas City Center
07:00PM 36.3678 -96.8025 298° West 406 467 38,000  Level Kansas City Center
07:01PM 36.4189 -96.9247 297° West 405 466 38,000  Level Kansas City Center
07:02PM 36.4708 -97.0492 297° West 405 466 38,000  Level Kansas City Center
07:03PM 36.5211 -97.1700 297° West 399 459 38,000  Level Kansas City Center
07:04PM 36.5711 -97.2906 297° West 395 455 38,000  Level Kansas City Center
07:05PM 36.6289 -97.4311 297° West 394 453 38,000  Level Kansas City Center
07:06PM 36.6794 -97.5533 297° West 395 455 38,000  Level Kansas City Center
07:07PM 36.7300 -97.6772 297° West 398 458 38,000  Level Kansas City Center
07:08PM 36.7844 -97.8108 297° West 400 460 38,000  Level Kansas City Center
07:09PM 36.8311 -97.9261 297° West 400 460 38,000  Level Kansas City Center
07:10PM 36.8811 -98.0503 297° West 401 461 38,000  Level Kansas City Center
07:11PM 36.9331 -98.1775 297° West 405 466 38,000  Level Kansas City Center
07:12PM 36.9833 -98.3047 296° West 407 468 38,000  Level Kansas City Center
07:13PM 37.0378 -98.4394 297° West 408 470 38,000  Level Kansas City Center
07:14PM 37.0953 -98.5858 296° West 408 470 38,000  Level Kansas City Center
07:15PM 37.1461 -98.7133 297° West 408 470 38,000  Level Kansas City Center
07:16PM 37.1961 -98.8397 296° West 406 467 38,000  Level Kansas City Center
07:17PM 37.2456 -98.9669 296° West 406 467 38,000  Level Kansas City Center
07:18PM 37.2964 -99.0961 296° West 408 470 38,000  Level Kansas City Center
07:19PM 37.3439 -99.2217 295° West 402 463 38,000  Level Kansas City Center
07:20PM 37.4025 -99.3722 296° West 400 460 38,000  Level Kansas City Center
07:21PM 37.4528 -99.4992 297° West 397 457 38,000  Level Kansas City Center
07:22PM 37.4986 -99.6150 297° West 390 449 38,000  Level Kansas City Center
07:23PM 37.5503 -99.7500 296° West 383 441 38,000  Level Kansas City Center
07:24PM 37.5944 -99.8667 296° West 386 444 38,000  Level Kansas City Center
07:26PM 37.6458 -99.9997 296° West 382 440 38,000  Level Kansas City Center
07:27PM 37.6892 -100.1117 296° West 375 432 38,000  Level Kansas City Center
07:28PM 37.7375 -100.2403 295° West 367 422 38,000  Level Kansas City Center
07:29PM 37.7797 -100.3511 296° West 366 421 38,000  Level Kansas City Center
07:30PM 37.8286 -100.4833 295° West 371 427 38,000  Level Kansas City Center
07:31PM 37.8706 -100.5956 295° West 372 428 38,000  Level Kansas City Center
07:32PM 37.9192 -100.7264 295° West 372 428 38,000  Level Kansas City Center
07:33PM 37.9633 -100.8389 296° West 375 432 38,000  Level Kansas City Center
07:34PM 38.0136 -100.9692 296° West 372 428 38,000  Level Kansas City Center
07:35PM 38.0569 -101.0822 296° West 374 430 38,000  Level Kansas City Center
07:36PM 38.1061 -101.2144 295° West 373 429 38,000  Level Kansas City Center
07:37PM 38.1483 -101.3253 296° West 368 423 38,000  Level Kansas City Center
07:38PM 38.1900 -101.4350 296° West 364 419 38,000 -480 Level Denver Center
07:39PM 38.2511 -101.5594 302° West 370 426 37,100 -900 Descending Denver Center
07:40PM 38.3050 -101.6669 303° West 376 433 36,200 -540 Descending Denver Center
07:41PM 38.3689 -101.7947 303° West 382 440 36,000 -120 Descending Denver Center
07:42PM 38.4233 -101.9053 302° West 384 442 36,000  Level Denver Center
07:43PM 38.4869 -102.0364 302° West 389 448 36,000  Level Denver Center
07:44PM 38.5428 -102.1467 303° West 388 447 36,000  Level Denver Center
07:45PM 38.6078 -102.2786 302° West 392 451 36,000  Level Denver Center
07:46PM 38.6639 -102.3928 302° West 396 456 36,000  Level Denver Center
07:47PM 38.7275 -102.5292 301° West 399 459 36,000  Level Denver Center
07:48PM 38.7850 -102.6444 303° West 400 460 36,000  Level Denver Center
07:49PM 38.8469 -102.7703 302° West 404 465 36,000 -480 Level Denver Center
07:50PM 38.9039 -102.8925 301° West 401 461 35,100 -960 Descending Denver Center
07:51PM 38.9592 -103.0078 302° West 386 444 34,100 -1,320 Descending Denver Center
07:52PM 39.0219 -103.1425 301° West 369 425 32,400 -1,740 Descending Denver Center
07:53PM 39.0756 -103.2500 303° West 362 417 30,600 -1,980 Descending Denver Center
07:54PM 39.1256 -103.3583 301° West 355 409 28,400 -2,100 Descending Denver Center
07:56PM 39.1750 -103.4619 302° West 345 397 26,300 -2,040 Descending Denver Center
07:57PM 39.2217 -103.5622 301° West 329 379 24,200 -1,980 Descending Denver Center
07:58PM 39.2675 -103.6589 302° West 318 366 22,300 -2,040 Descending Denver Center
07:59PM 39.3186 -103.7700 301° West 304 350 20,000 -2,040 Descending Denver Center
08:00PM 39.3597 -103.8600 301° West 294 338 18,200 -1,140 Descending Denver Center
08:01PM 39.3997 -103.9525 299° West 288 331 17,700 -1,020 Descending Denver Center
08:02PM 39.4011 -104.0517 271° West 277 319 16,100 -1,560 Descending Denver Center
08:03PM 39.4064 -104.1578 274° West 274 315 14,500 -1,260 Descending Denver Center
08:04PM 39.4103 -104.2575 273° West 277 319 13,500 -960 Descending Denver Center
08:05PM 39.4419 -104.3425 296° West 246 283 12,600 -1,200 Descending Denver Center
08:06PM 39.4717 -104.4097 300° West 219 252 11,100 -1,260 Descending Denver Center
08:07PM 39.5033 -104.4831 299° West 217 250 10,000 -720 Descending Denver Center
08:08PM 39.5347 -104.5494 302° West 218 251 9,700 -1,200 Descending Denver Center
08:09PM 39.5978 -104.5786 340° North 227 261 7,600 -1,200 Descending Denver Center
08:10PM 39.6544 -104.6103 337° Northwest 221 254 7,300 -180 Descending Denver Center
08:11PM 39.7078 -104.6378 338° Northwest 212 244 7,300 -300 Level Denver Center
08:12PM 39.7622 -104.6425 356° North 184 212 6,700 -720 Descending Denver Center
08:13PM 39.8064 -104.6422 360° North 164 189 5,900 -720 Descending Denver Center
08:14PM 39.8469 -104.6411 North 159 183 5,300 -600 Descending Denver Center